Time;durP1;ratioP1;P1;durP2;ratioP2;P2;SDS_P1;SDS_P2;PMS_P1;PMS_P2;Temp;Humidity;BMP_temperature;BMP_pressure;BME280_temperature;BME280_humidity;BME280_pressure;Samples;Min_cycle;Max_cycle;Signal;HPM_P1;HPM_P2
2023/03/08 00:02:14;;;;;;;5.20;3.45;;;;;;;1.07;100.00;100137.97;5007750;28;20033;-64
2023/03/08 00:04:40;;;;;;;5.38;3.65;;;;;;;1.16;100.00;100135.31;5007639;28;20046;-63
2023/03/08 00:07:05;;;;;;;7.35;3.50;;;;;;;1.20;100.00;100137.00;5009067;28;20034;-63
2023/03/08 00:09:30;;;;;;;13.50;3.90;;;;;;;1.23;100.00;100144.78;5007690;28;20034;-63
2023/03/08 00:11:56;;;;;;;7.07;4.40;;;;;;;1.33;100.00;100143.00;5007541;28;20030;-63
2023/03/08 00:14:21;;;;;;;12.20;5.93;;;;;;;1.45;100.00;100131.66;5007108;28;20044;-64
2023/03/08 00:16:47;;;;;;;11.23;4.90;;;;;;;1.55;100.00;100126.38;4990933;28;20470;-65
2023/03/08 00:19:12;;;;;;;9.85;4.38;;;;;;;1.63;100.00;100127.19;5018219;28;20021;-63
2023/03/08 00:21:37;;;;;;;6.38;3.78;;;;;;;1.68;100.00;100128.00;5031716;28;20052;-62
2023/03/08 00:24:03;;;;;;;9.80;4.00;;;;;;;1.66;100.00;100121.97;5028059;28;20021;-64
2023/03/08 00:26:28;;;;;;;5.85;3.38;;;;;;;1.66;100.00;100126.31;5011543;28;20044;-62
2023/03/08 00:28:54;;;;;;;8.80;3.83;;;;;;;1.70;100.00;100125.41;5012227;28;20022;-64
2023/03/08 00:31:19;;;;;;;10.05;4.80;;;;;;;1.67;100.00;100123.69;5010279;28;20148;-62
2023/03/08 00:33:44;;;;;;;7.20;3.15;;;;;;;1.57;100.00;100133.31;5011586;28;20030;-61
2023/03/08 00:36:15;;;;;;;9.63;4.38;;;;;;;1.36;100.00;100123.94;5031550;28;20426;-62
2023/03/08 00:38:41;;;;;;;6.28;3.28;;;;;;;1.40;100.00;100117.84;5030764;28;20075;-63
2023/03/08 00:41:06;;;;;;;6.72;3.45;;;;;;;1.41;100.00;100114.38;5030327;28;20053;-62
2023/03/08 00:43:32;;;;;;;7.22;3.17;;;;;;;1.33;100.00;100103.19;5030985;28;20021;-63
2023/03/08 00:45:58;;;;;;;5.43;3.45;;;;;;;1.28;100.00;100102.34;5030994;28;20033;-63
2023/03/08 00:48:23;;;;;;;4.28;3.53;;;;;;;1.27;100.00;100104.09;5023651;28;20034;-63
2023/03/08 00:50:49;;;;;;;9.90;3.50;;;;;;;1.18;100.00;100093.78;5010285;28;20022;-62
2023/03/08 00:53:14;;;;;;;6.75;2.90;;;;;;;1.05;100.00;100096.44;5010434;28;20497;-62
2023/03/08 00:55:48;;;;;;;9.85;3.45;;;;;;;1.05;100.00;100099.03;5011526;28;20032;-62
2023/03/08 00:58:13;;;;;;;4.15;3.70;;;;;;;1.06;100.00;100093.00;5010784;28;20792;-62
2023/03/08 01:00:38;;;;;;;14.57;3.83;;;;;;;1.11;100.00;100098.13;5011287;28;20125;-64
2023/03/08 01:03:04;;;;;;;5.32;3.35;;;;;;;1.07;100.00;100104.22;5010374;28;20100;-63
2023/03/08 01:05:29;;;;;;;7.00;3.85;;;;;;;1.03;100.00;100095.63;5011130;28;20564;-62
2023/03/08 01:07:54;;;;;;;5.07;3.15;;;;;;;1.04;100.00;100092.13;5012062;28;20471;-62
2023/03/08 01:10:20;;;;;;;8.05;3.40;;;;;;;1.00;100.00;100088.69;5011316;28;20044;-63
2023/03/08 01:12:45;;;;;;;5.75;3.00;;;;;;;0.94;100.00;100083.56;5011028;28;20030;-63
2023/03/08 01:15:11;;;;;;;5.35;2.70;;;;;;;0.93;100.00;100080.97;5010821;28;20105;-64
2023/03/08 01:17:36;;;;;;;5.30;2.28;;;;;;;0.94;100.00;100080.09;5026727;28;20030;-62
2023/03/08 01:20:03;;;;;;;3.50;2.17;;;;;;;0.93;100.00;100078.38;5030935;28;20103;-62
2023/03/08 01:22:28;;;;;;;8.13;2.83;;;;;;;0.93;100.00;100062.81;5028648;28;20033;-64
2023/03/08 01:24:53;;;;;;;4.68;2.47;;;;;;;0.90;100.00;100062.84;5029079;28;20030;-62
2023/03/08 01:27:19;;;;;;;5.00;2.05;;;;;;;0.85;100.00;100070.66;5030619;28;20029;-62
2023/03/08 01:29:44;;;;;;;4.68;2.15;;;;;;;0.88;100.00;100066.28;5028977;28;20018;-65
2023/03/08 01:32:09;;;;;;;7.07;1.80;;;;;;;0.88;100.00;100061.09;5010950;28;20033;-62
2023/03/08 01:34:36;;;;;;;3.88;2.20;;;;;;;0.88;100.00;100060.25;5009331;28;20084;-61
2023/03/08 01:37:02;;;;;;;9.55;2.20;;;;;;;0.88;100.00;100053.31;5021184;28;20425;-62
2023/03/08 01:39:27;;;;;;;8.35;2.40;;;;;;;0.84;100.00;100038.66;5028680;28;20032;-61
2023/03/08 01:41:53;;;;;;;5.22;2.50;;;;;;;0.90;100.00;100035.16;5029609;28;20497;-63
2023/03/08 01:44:21;;;;;;;6.15;2.28;;;;;;;0.89;100.00;100038.63;5030070;28;20025;-63
2023/03/08 01:46:47;;;;;;;7.55;3.00;;;;;;;0.83;100.00;100034.34;5029492;28;20087;-61
2023/03/08 01:49:17;;;;;;;11.52;2.65;;;;;;;0.84;100.00;100030.03;5030061;28;20469;-61
2023/03/08 01:51:49;;;;;;;13.40;3.22;;;;;;;0.93;100.00;100029.09;5019076;28;20104;-62
2023/03/08 01:54:21;;;;;;;6.70;3.30;;;;;;;0.91;100.00;100029.09;5008479;28;20037;-61
2023/03/08 01:56:48;;;;;;;5.13;2.72;;;;;;;0.89;100.00;100025.66;5009505;28;20034;-62
2023/03/08 01:59:13;;;;;;;4.43;2.63;;;;;;;0.86;100.00;100021.34;5009591;28;20021;-62
2023/03/08 02:01:39;;;;;;;4.95;3.25;;;;;;;0.85;100.00;100021.38;5009357;28;20092;-63
2023/03/08 02:04:05;;;;;;;5.93;3.65;;;;;;;0.84;100.00;100027.44;5008063;28;20438;-62
2023/03/08 02:06:30;;;;;;;6.65;3.65;;;;;;;0.86;100.00;100016.16;5008523;28;20483;-61
2023/03/08 02:08:56;;;;;;;5.90;3.22;;;;;;;0.85;100.00;100021.38;5009331;28;20394;-63
2023/03/08 02:11:22;;;;;;;10.75;3.50;;;;;;;0.83;100.00;100028.28;5009839;28;20045;-63
2023/03/08 02:13:49;;;;;;;6.90;3.38;;;;;;;0.78;100.00;100017.09;5008585;28;20366;-62
2023/03/08 02:16:15;;;;;;;8.02;3.22;;;;;;;0.72;100.00;100013.66;4991161;28;20508;-62
2023/03/08 02:18:50;;;;;;;7.88;3.58;;;;;;;0.73;100.00;99999.81;5018432;28;20090;-62
2023/03/08 02:21:15;;;;;;;5.78;3.70;;;;;;;0.78;100.00;99998.94;5029416;28;20034;-63
2023/03/08 02:23:40;;;;;;;5.53;3.50;;;;;;;0.78;100.00;99996.34;5029140;28;20091;-62
2023/03/08 02:26:06;;;;;;;5.45;3.50;;;;;;;0.79;100.00;99998.06;5028352;28;20030;-62
2023/03/08 02:28:32;;;;;;;9.30;3.88;;;;;;;0.85;100.00;99992.84;5026674;28;20334;-62
2023/03/08 02:30:58;;;;;;;10.27;3.50;;;;;;;0.79;100.00;99987.69;4988092;28;20031;-62
2023/03/08 02:33:23;;;;;;;14.45;3.38;;;;;;;0.76;100.00;99985.97;4989306;28;20367;-61
2023/03/08 02:35:49;;;;;;;8.30;4.13;;;;;;;0.73;100.00;99973.88;4989828;28;20027;-64
2023/03/08 02:38:15;;;;;;;6.90;3.50;;;;;;;0.70;100.00;99979.09;4989895;28;20061;-62
2023/03/08 02:40:41;;;;;;;7.60;3.65;;;;;;;0.58;100.00;99974.00;4990782;28;20053;-63
2023/03/08 02:43:07;;;;;;;6.60;3.42;;;;;;;0.52;100.00;99971.44;4990199;28;20046;-66
2023/03/08 02:45:32;;;;;;;4.22;3.40;;;;;;;0.45;100.00;99975.81;4989412;28;20038;-62
2023/03/08 02:47:59;;;;;;;7.13;3.60;;;;;;;0.42;100.00;99973.25;4988172;28;20667;-62
2023/03/08 02:50:24;;;;;;;9.50;3.50;;;;;;;0.36;100.00;99980.16;4990021;28;20041;-62
2023/03/08 02:52:49;;;;;;;10.75;4.30;;;;;;;0.45;100.00;99978.41;5008129;28;20405;-61
2023/03/08 02:55:15;;;;;;;12.65;4.55;;;;;;;0.51;100.00;99988.72;5009042;28;20084;-62
2023/03/08 02:57:40;;;;;;;7.35;4.82;;;;;;;0.48;100.00;99984.41;5009047;28;20061;-63
2023/03/08 03:00:06;;;;;;;10.15;5.20;;;;;;;0.47;100.00;99985.28;5009883;28;20030;-63
2023/03/08 03:02:33;;;;;;;10.30;5.68;;;;;;;0.49;100.00;99985.28;5015723;28;20103;-63
2023/03/08 03:04:58;;;;;;;9.23;5.25;;;;;;;0.48;100.00;99974.03;5028633;28;20545;-62
2023/03/08 03:07:23;;;;;;;8.82;5.32;;;;;;;0.49;100.00;99960.19;5027939;28;20075;-62
2023/03/08 03:09:49;;;;;;;10.60;6.25;;;;;;;0.47;100.00;99961.97;5029044;28;20029;-62
2023/03/08 03:12:14;;;;;;;11.48;7.32;;;;;;;0.42;100.00;99947.31;5027222;28;20055;-62
2023/03/08 03:14:39;;;;;;;9.90;6.22;;;;;;;0.47;100.00;99940.34;5026545;28;20493;-62
2023/03/08 03:17:05;;;;;;;11.90;7.57;;;;;;;0.46;100.00;99943.81;5028265;28;20496;-61
2023/03/08 03:19:30;;;;;;;12.20;7.28;;;;;;;0.44;100.00;99933.47;5027367;28;20473;-63
2023/03/08 03:21:55;;;;;;;11.93;6.32;;;;;;;0.46;100.00;99928.28;5028577;28;20450;-61
2023/03/08 03:24:21;;;;;;;14.45;7.45;;;;;;;0.45;100.00;99929.16;5025844;28;20021;-62
2023/03/08 03:26:49;;;;;;;15.50;8.30;;;;;;;0.47;100.00;99920.50;5009379;28;20469;-63
2023/03/08 03:29:15;;;;;;;12.43;8.68;;;;;;;0.53;100.00;99918.72;5008999;28;20034;-63
2023/03/08 03:31:40;;;;;;;15.93;9.35;;;;;;;0.53;100.00;99910.94;4990617;28;20080;-62
2023/03/08 03:34:05;;;;;;;17.40;8.43;;;;;;;0.56;100.00;99910.91;5009686;28;20042;-62
2023/03/08 03:36:30;;;;;;;18.25;9.35;;;;;;;0.55;100.00;99901.44;5009727;28;20026;-62
2023/03/08 03:38:57;;;;;;;15.00;8.75;;;;;;;0.58;100.00;99891.03;5008754;28;20117;-62
2023/03/08 03:41:22;;;;;;;17.52;9.60;;;;;;;0.61;100.00;99880.63;5006683;28;20026;-61
2023/03/08 03:43:48;;;;;;;16.88;10.02;;;;;;;0.62;100.00;99884.94;5008613;28;20029;-65
2023/03/08 03:46:17;;;;;;;19.02;10.13;;;;;;;0.62;100.00;99882.34;5008390;28;20034;-63
2023/03/08 03:48:43;;;;;;;17.30;10.63;;;;;;;0.68;100.00;99876.25;5024839;28;20033;-64
2023/03/08 03:51:11;;;;;;;19.02;10.80;;;;;;;0.71;100.00;99879.69;5009390;28;20044;-63
2023/03/08 03:53:36;;;;;;;21.27;11.07;;;;;;;0.70;100.00;99883.16;5012642;28;20113;-62
2023/03/08 03:56:06;;;;;;;18.05;10.95;;;;;;;0.71;100.00;99884.88;5010766;28;20558;-63
2023/03/08 03:58:32;;;;;;;22.48;11.85;;;;;;;0.74;100.00;99890.03;5012438;28;20030;-63
2023/03/08 04:00:57;;;;;;;19.13;11.55;;;;;;;0.78;100.00;99887.41;5011001;28;20022;-62
2023/03/08 04:03:23;;;;;;;20.90;12.40;;;;;;;0.25;100.00;99889.50;5011525;28;20478;-63
2023/03/08 04:05:49;;;;;;;24.58;13.45;;;;;;;0.10;100.00;99887.03;5012352;28;20402;-64
2023/03/08 04:08:14;;;;;;;30.02;14.73;;;;;;;0.05;100.00;99879.28;5011063;28;20045;-62
2023/03/08 04:10:39;;;;;;;32.70;15.05;;;;;;;0.03;100.00;99872.41;5011962;28;20441;-62
2023/03/08 04:13:05;;;;;;;27.05;14.80;;;;;;;0.02;100.00;99863.75;5011496;28;20026;-61
2023/03/08 04:15:30;;;;;;;33.58;16.50;;;;;;;0.02;100.00;99865.50;5010924;28;20026;-63
2023/03/08 04:17:55;;;;;;;34.13;18.35;;;;;;;0.11;100.00;99862.84;5017976;28;20029;-62
2023/03/08 04:20:21;;;;;;;33.42;18.45;;;;;;;0.10;100.00;99859.41;5032117;28;20013;-63
2023/03/08 04:22:47;;;;;;;38.65;17.48;;;;;;;0.09;100.00;99857.66;5031081;28;20052;-62
2023/03/08 04:25:12;;;;;;;44.20;20.27;;;;;;;0.16;100.00;99852.47;5031774;28;20022;-66
2023/03/08 04:27:37;;;;;;;41.25;20.17;;;;;;;-0.07;100.00;99850.88;5023104;28;20411;-61
2023/03/08 04:30:03;;;;;;;27.48;18.02;;;;;;;-0.21;100.00;99849.22;5027996;28;20485;-62
2023/03/08 04:32:31;;;;;;;31.10;15.90;;;;;;;-0.02;100.00;99847.41;5030555;28;20533;-62
2023/03/08 04:34:56;;;;;;;38.70;20.20;;;;;;;-0.07;100.00;99841.38;5031270;28;20382;-62
2023/03/08 04:37:21;;;;;;;37.10;20.30;;;;;;;0.19;100.00;99835.16;5027903;28;20025;-62
2023/03/08 04:39:47;;;;;;;42.65;21.88;;;;;;;0.03;100.00;99831.81;5012148;28;20115;-63
2023/03/08 04:42:12;;;;;;;40.10;20.55;;;;;;;0.18;100.00;99828.25;5010679;28;20068;-62
2023/03/08 04:44:37;;;;;;;33.47;19.52;;;;;;;0.14;100.00;99823.09;5011905;28;20033;-63
2023/03/08 04:47:03;;;;;;;34.92;20.55;;;;;;;0.20;100.00;99826.53;5011197;28;20033;-62
2023/03/08 04:49:28;;;;;;;40.50;20.15;;;;;;;0.11;100.00;99830.03;5010781;28;20041;-63
2023/03/08 04:51:53;;;;;;;34.00;19.05;;;;;;;0.11;100.00;99824.84;5011170;28;20037;-61
2023/03/08 04:54:19;;;;;;;29.92;17.90;;;;;;;0.06;100.00;99818.84;5010182;28;20470;-62
2023/03/08 04:56:44;;;;;;;34.95;17.88;;;;;;;-0.02;100.00;99805.97;5016006;28;20112;-61
2023/03/08 04:59:09;;;;;;;35.33;19.85;;;;;;;0.11;100.00;99804.13;5030510;28;20125;-62
2023/03/08 05:01:35;;;;;;;37.78;19.95;;;;;;;0.14;100.00;99803.25;5030087;28;20409;-62
2023/03/08 05:04:00;;;;;;;39.40;20.42;;;;;;;0.16;100.00;99801.50;5028567;28;20401;-63
2023/03/08 05:06:26;;;;;;;39.28;19.73;;;;;;;0.27;100.00;99796.22;4990926;28;20074;-63
2023/03/08 05:08:54;;;;;;;38.38;20.55;;;;;;;0.29;100.00;99778.06;5006425;28;20165;-61
2023/03/08 05:11:25;;;;;;;39.78;21.15;;;;;;;0.19;100.00;99779.88;4990211;28;20023;-62
2023/03/08 05:13:52;;;;;;;48.63;22.45;;;;;;;0.14;100.00;99772.16;5021373;28;20026;-61
2023/03/08 05:16:18;;;;;;;43.95;22.50;;;;;;;0.18;100.00;99778.19;5008528;28;20040;-62
2023/03/08 05:18:43;;;;;;;47.53;22.10;;;;;;;0.25;100.00;99772.91;5010414;28;20429;-62
2023/03/08 05:21:14;;;;;;;55.55;24.15;;;;;;;0.12;100.00;99763.56;5008666;28;20044;-62
2023/03/08 05:23:40;;;;;;;58.45;25.00;;;;;;;0.01;100.00;99749.81;5010834;28;20379;-62
2023/03/08 05:26:06;;;;;;;68.50;27.92;;;;;;;0.08;100.00;99741.97;5007973;28;20113;-62
2023/03/08 05:28:34;;;;;;;64.20;28.70;;;;;;;0.11;100.00;99738.50;5009681;28;20029;-64
2023/03/08 05:31:19;;;;;;;63.58;28.27;;;;;;;0.15;100.00;99721.22;5008601;28;20030;-61
2023/03/08 05:33:45;;;;;;;69.65;29.02;;;;;;;0.10;100.00;99716.94;5028758;28;20037;-61
2023/03/08 05:36:11;;;;;;;53.05;26.35;;;;;;;0.26;100.00;99709.00;5011293;28;20065;-62
2023/03/08 05:38:37;;;;;;;82.18;29.75;;;;;;;0.14;100.00;99712.56;5005020;28;20034;-63
2023/03/08 05:41:07;;;;;;;82.75;29.42;;;;;;;0.15;100.00;99716.88;5008210;28;20463;-63
2023/03/08 05:43:33;;;;;;;78.88;30.27;;;;;;;0.21;100.00;99710.78;5020909;28;20056;-63
2023/03/08 05:46:01;;;;;;;110.72;30.85;;;;;;;0.20;100.00;99707.34;5009001;28;20062;-62
2023/03/08 05:48:26;;;;;;;69.43;31.73;;;;;;;0.19;100.00;99703.03;5010369;28;20116;-62
2023/03/08 05:50:52;;;;;;;75.68;31.75;;;;;;;0.08;100.00;99704.84;5008174;28;20097;-63
2023/03/08 05:53:17;;;;;;;92.65;31.38;;;;;;;0.18;100.00;99690.09;5009121;28;20148;-62
2023/03/08 05:55:42;;;;;;;71.80;30.60;;;;;;;0.22;100.00;99687.47;5008950;28;20052;-61
2023/03/08 05:58:08;;;;;;;69.05;30.83;;;;;;;0.31;100.00;99693.41;5008570;28;20076;-63
2023/03/08 06:00:33;;;;;;;74.40;32.65;;;;;;;0.17;100.00;99689.22;5011245;28;20013;-63
2023/03/08 06:02:59;;;;;;;81.07;36.05;;;;;;;0.11;100.00;99677.19;5028332;28;20508;-62
2023/03/08 06:05:24;;;;;;;79.93;34.63;;;;;;;0.23;100.00;99680.53;5029266;28;20049;-62
2023/03/08 06:07:50;;;;;;;75.50;33.70;;;;;;;0.32;100.00;99685.63;5029795;28;20112;-61
2023/03/08 06:10:16;;;;;;;80.32;34.65;;;;;;;0.27;100.00;99681.38;5011796;28;20405;-61
2023/03/08 06:12:41;;;;;;;82.57;35.00;;;;;;;0.20;100.00;99689.19;5010216;28;20033;-61
2023/03/08 06:15:07;;;;;;;79.82;35.95;;;;;;;0.32;100.00;99682.16;5007707;28;20042;-63
2023/03/08 06:17:33;;;;;;;102.55;39.13;;;;;;;0.30;100.00;99686.53;5006887;28;20386;-63
2023/03/08 06:19:58;;;;;;;71.68;33.63;;;;;;;0.27;100.00;99686.56;5008052;28;20025;-65
2023/03/08 06:22:23;;;;;;;71.30;34.15;;;;;;;0.35;100.00;99688.19;5008745;28;20237;-62
2023/03/08 06:24:49;;;;;;;79.13;36.25;;;;;;;0.36;100.00;99689.06;5023427;28;20033;-62
2023/03/08 06:27:16;;;;;;;74.93;36.05;;;;;;;0.33;100.00;99684.75;5028424;28;20026;-62
2023/03/08 06:29:41;;;;;;;71.68;36.88;;;;;;;0.23;100.00;99689.16;5028092;28;20026;-62
2023/03/08 06:32:06;;;;;;;99.03;37.97;;;;;;;0.24;100.00;99683.09;5027295;28;20076;-62
2023/03/08 06:34:32;;;;;;;94.63;38.60;;;;;;;0.30;100.00;99686.53;5014671;28;20042;-62
2023/03/08 06:36:58;;;;;;;146.77;38.85;;;;;;;0.30;100.00;99679.59;5008162;28;20029;-62
2023/03/08 06:39:24;;;;;;;167.77;38.92;;;;;;;0.38;100.00;99682.09;5007779;28;20025;-62
2023/03/08 06:41:49;;;;;;;87.00;38.70;;;;;;;0.39;100.00;99678.63;5008757;28;20386;-64
2023/03/08 06:44:14;;;;;;;81.80;37.10;;;;;;;0.46;100.00;99685.50;5023480;28;20474;-63
2023/03/08 06:46:39;;;;;;;85.22;39.35;;;;;;;0.43;100.00;99680.34;5026717;28;20592;-63
2023/03/08 06:49:06;;;;;;;84.43;37.42;;;;;;;0.40;100.00;99680.38;5027378;28;20474;-63
2023/03/08 06:51:32;;;;;;;95.03;38.00;;;;;;;0.31;100.00;99677.88;5025600;28;20018;-62
2023/03/08 06:53:57;;;;;;;93.07;38.58;;;;;;;0.33;100.00;99678.72;5026815;28;20501;-62
2023/03/08 06:56:23;;;;;;;88.43;38.50;;;;;;;0.39;100.00;99677.78;5027272;28;20470;-62
2023/03/08 06:58:48;;;;;;;97.25;39.13;;;;;;;0.45;100.00;99675.97;5017013;28;20026;-63
2023/03/08 07:01:14;;;;;;;86.80;37.92;;;;;;;0.54;100.00;99672.41;5005416;28;20026;-64
2023/03/08 07:03:39;;;;;;;79.20;34.85;;;;;;;0.61;100.00;99665.44;5005377;28;20109;-62
2023/03/08 07:06:07;;;;;;;75.00;35.90;;;;;;;0.63;100.00;99668.84;4989371;28;20108;-62
2023/03/08 07:08:33;;;;;;;79.07;37.53;;;;;;;0.67;100.00;99664.50;4993231;28;20487;-62
2023/03/08 07:10:59;;;;;;;76.63;36.25;;;;;;;0.70;100.00;99656.69;5007717;28;20045;-63
2023/03/08 07:13:25;;;;;;;75.78;36.33;;;;;;;0.75;100.00;99663.53;5005718;28;20398;-60
2023/03/08 07:15:50;;;;;;;85.20;38.90;;;;;;;0.79;100.00;99656.59;5006533;28;20064;-59
2023/03/08 07:18:16;;;;;;;90.05;36.90;;;;;;;0.91;100.00;99645.19;5005782;28;20029;-61
2023/03/08 07:20:41;;;;;;;87.35;36.95;;;;;;;0.97;100.00;99649.44;5011940;28;20026;-59
2023/03/08 07:23:07;;;;;;;80.40;37.28;;;;;;;0.87;100.00;99653.88;5006784;28;20053;-59
2023/03/08 07:25:32;;;;;;;82.50;36.65;;;;;;;0.87;100.00;99646.09;5006651;28;20041;-60
2023/03/08 07:27:58;;;;;;;85.10;38.70;;;;;;;0.94;100.00;99649.47;5010124;28;20025;-60
2023/03/08 07:30:24;;;;;;;85.80;37.08;;;;;;;0.78;100.00;99648.81;5007139;28;20455;-59
2023/03/08 07:32:52;;;;;;;78.90;36.75;;;;;;;0.72;100.00;99645.41;4990337;28;20014;-61
2023/03/08 07:35:17;;;;;;;84.82;37.42;;;;;;;0.78;100.00;99641.88;5010562;28;20018;-61
2023/03/08 07:37:44;;;;;;;82.07;36.92;;;;;;;0.80;100.00;99637.56;5019643;28;20071;-60
2023/03/08 07:40:11;;;;;;;88.47;37.72;;;;;;;0.70;100.00;99638.53;5008839;28;20482;-60
2023/03/08 07:42:36;;;;;;;93.70;38.90;;;;;;;0.54;100.00;99637.88;5011454;28;20049;-61
2023/03/08 07:45:02;;;;;;;86.63;39.33;;;;;;;0.66;100.00;99634.28;5010116;28;20025;-65
2023/03/08 07:47:28;;;;;;;82.55;37.25;;;;;;;0.72;100.00;99640.22;5010938;28;20038;-62
2023/03/08 07:49:53;;;;;;;79.65;37.53;;;;;;;0.82;100.00;99635.81;5015279;28;20022;-62
2023/03/08 07:52:18;;;;;;;85.90;38.25;;;;;;;0.82;100.00;99638.41;5009249;28;20446;-67
2023/03/08 07:54:43;;;;;;;79.93;36.83;;;;;;;0.67;100.00;99635.97;5010570;28;20073;-61
2023/03/08 07:57:13;;;;;;;91.80;37.88;;;;;;;0.68;100.00;99642.88;5008771;28;20018;-61
2023/03/08 07:59:38;;;;;;;79.60;37.10;;;;;;;0.59;100.00;99638.66;5007143;28;20072;-62
2023/03/08 08:02:04;;;;;;;75.78;37.78;;;;;;;0.69;100.00;99635.09;4999670;28;20053;-59
2023/03/08 08:04:29;;;;;;;74.38;35.45;;;;;;;0.80;100.00;99632.38;5009886;28;20065;-61
2023/03/08 08:06:54;;;;;;;77.88;37.15;;;;;;;0.83;100.00;99627.13;5009476;28;20053;-61
2023/03/08 08:09:20;;;;;;;75.85;35.88;;;;;;;0.84;100.00;99612.44;5009362;28;20083;-60
2023/03/08 08:11:45;;;;;;;76.55;34.97;;;;;;;0.85;100.00;99611.56;5011023;28;20529;-59
2023/03/08 08:14:10;;;;;;;77.60;35.83;;;;;;;0.82;100.00;99621.97;5009570;28;20451;-60
2023/03/08 08:16:36;;;;;;;74.10;35.65;;;;;;;0.86;100.00;99611.53;5000952;28;20033;-62
2023/03/08 08:19:01;;;;;;;75.47;35.88;;;;;;;0.78;100.00;99613.34;5003167;28;20026;-61
2023/03/08 08:21:27;;;;;;;74.15;34.70;;;;;;;0.91;100.00;99605.41;5006611;28;20379;-59
2023/03/08 08:23:56;;;;;;;76.72;36.15;;;;;;;1.13;100.00;99611.16;4998655;28;20038;-62
2023/03/08 08:26:21;;;;;;;;;;;;;;;1.02;100.00;99610.47;5003229;28;20480;-58
2023/03/08 08:28:51;;;;;;;71.55;33.17;;;;;;;1.03;100.00;99612.16;5003813;28;20015;-60
2023/03/08 08:31:19;;;;;;;69.63;31.63;;;;;;;1.06;100.00;99610.41;5013037;28;20091;-60
2023/03/08 08:33:44;;;;;;;68.18;32.28;;;;;;;1.29;100.00;99613.53;4997026;28;20065;-60
2023/03/08 08:36:12;;;;;;;60.55;31.40;;;;;;;1.33;100.00;99605.69;5005428;28;20049;-63
2023/03/08 08:38:37;;;;;;;64.35;31.52;;;;;;;1.39;100.00;99609.91;5003605;28;20038;-61
2023/03/08 08:41:04;;;;;;;61.17;29.20;;;;;;;1.34;100.00;99606.53;5003226;28;20030;-65
2023/03/08 08:43:30;;;;;;;56.22;28.85;;;;;;;1.50;100.00;99597.59;4994920;28;20048;-61
2023/03/08 08:45:57;;;;;;;56.03;29.52;;;;;;;1.51;100.00;99583.72;5004327;28;20022;-62
2023/03/08 08:48:23;;;;;;;55.30;27.38;;;;;;;1.81;100.00;99593.66;5008695;28;20022;-63
2023/03/08 08:50:49;;;;;;;49.25;26.55;;;;;;;1.90;100.00;99590.03;5008738;28;20120;-63
2023/03/08 08:53:14;;;;;;;52.90;25.63;;;;;;;2.04;100.00;99594.94;5015056;28;20474;-63
2023/03/08 08:55:40;;;;;;;46.78;24.88;;;;;;;2.07;100.00;99586.22;5029699;28;20029;-62
2023/03/08 08:58:06;;;;;;;52.90;26.95;;;;;;;2.08;100.00;99588.78;5029444;28;20029;-62
2023/03/08 09:00:32;;;;;;;45.13;23.35;;;;;;;2.31;100.00;99589.22;5017653;28;20025;-63
2023/03/08 09:02:58;;;;;;;44.65;23.23;;;;;;;2.38;100.00;99581.28;5020664;28;20022;-64
2023/03/08 09:05:24;;;;;;;42.63;22.75;;;;;;;2.33;100.00;99577.06;5008288;28;20406;-62
2023/03/08 09:07:49;;;;;;;38.78;21.65;;;;;;;2.46;100.00;99568.13;5009624;28;20034;-63
2023/03/08 09:10:14;;;;;;;40.00;20.70;;;;;;;2.35;100.00;99572.72;5007675;28;20489;-63
2023/03/08 09:12:41;;;;;;;33.17;18.23;;;;;;;2.56;100.00;99563.59;5009448;28;20109;-62
2023/03/08 09:15:09;;;;;;;34.90;18.35;;;;;;;2.78;100.00;99557.94;5008353;28;20486;-63
2023/03/08 09:17:34;;;;;;;29.48;17.17;;;;;;;3.05;100.00;99550.38;5009903;28;20199;-63
2023/03/08 09:19:59;;;;;;;28.75;17.05;;;;;;;3.09;100.00;99538.13;5009484;28;20052;-63
2023/03/08 09:22:25;;;;;;;26.40;15.65;;;;;;;2.99;100.00;99538.38;5008126;28;20633;-64
2023/03/08 09:24:50;;;;;;;28.02;15.65;;;;;;;3.45;100.00;99540.72;5008176;28;20036;-62
2023/03/08 09:27:16;;;;;;;23.35;14.48;;;;;;;3.44;100.00;99540.78;4992138;28;20113;-61
2023/03/08 09:29:41;;;;;;;26.15;14.98;;;;;;;3.33;100.00;99533.22;5008282;28;20417;-64
2023/03/08 09:32:06;;;;;;;23.75;14.85;;;;;;;3.24;100.00;99542.13;5014375;28;20035;-61
2023/03/08 09:34:32;;;;;;;26.42;15.88;;;;;;;3.02;100.00;99535.72;5018420;28;20030;-64
2023/03/08 09:36:57;;;;;;;26.02;15.85;;;;;;;3.08;100.00;99528.63;5008538;28;20026;-66
2023/03/08 09:39:22;;;;;;;28.60;16.15;;;;;;;3.44;100.00;99526.00;5007431;28;20034;-65
2023/03/08 09:41:50;;;;;;;25.48;15.35;;;;;;;3.48;100.00;99527.63;5009735;28;20026;-66
2023/03/08 09:44:19;;;;;;;27.42;15.90;;;;;;;3.40;100.00;99521.75;5009000;28;20030;-65
2023/03/08 09:46:49;;;;;;;24.45;15.32;;;;;;;3.55;100.00;99533.53;5023882;28;20044;-64
2023/03/08 09:49:18;;;;;;;26.98;16.63;;;;;;;3.52;100.00;99534.47;5027821;28;20021;-64
2023/03/08 09:51:49;;;;;;;26.13;15.25;;;;;;;3.69;100.00;99541.00;5025061;28;20075;-64
2023/03/08 09:54:18;;;;;;;26.35;14.88;;;;;;;3.36;100.00;99546.16;5028079;28;20029;-65
2023/03/08 09:56:49;;;;;;;25.63;15.10;;;;;;;3.44;100.00;99536.44;5027335;28;20071;-72
2023/03/08 09:59:33;;;;;;;23.23;14.45;;;;;;;3.20;100.00;99530.94;5027950;28;20033;-60
2023/03/08 10:02:36;;;;;;;30.67;15.18;;;;;;;3.22;100.00;99526.53;5023451;28;20049;-61
2023/03/08 10:05:01;;;;;;;47.25;27.30;;;;;;;3.40;100.00;99540.84;5024460;28;20046;-61
2023/03/08 10:07:36;;;;;;;22.55;14.25;;;;;;;3.45;100.00;99540.72;5026975;28;20520;-57
2023/03/08 10:10:08;;;;;;;22.40;13.88;;;;;;;3.41;100.00;99533.91;5015365;28;20101;-64
2023/03/08 10:12:46;;;;;;;26.80;13.75;;;;;;;3.32;100.00;99527.19;5007626;28;20026;-65
2023/03/08 10:15:17;;;;;;;27.52;13.57;;;;;;;3.46;100.00;99518.16;5006053;28;20115;-64
2023/03/08 10:17:49;;;;;;;20.35;12.68;;;;;;;3.62;100.00;99513.41;5008378;28;20029;-64
2023/03/08 10:20:23;;;;;;;25.83;14.00;;;;;;;3.45;100.00;99501.69;5009432;28;20037;-62
2023/03/08 10:22:55;;;;;;;24.83;14.50;;;;;;;3.32;100.00;99497.69;5007387;28;20037;-65
2023/03/08 10:25:25;;;;;;;27.80;15.65;;;;;;;3.28;100.00;99484.72;5005229;28;20471;-62
2023/03/08 10:27:53;;;;;;;26.95;15.48;;;;;;;3.26;100.00;99489.13;5009022;28;20040;-60
2023/03/08 10:30:21;;;;;;;24.70;13.80;;;;;;;3.18;100.00;99483.25;5024707;28;20480;-65
2023/03/08 10:32:50;;;;;;;25.38;14.07;;;;;;;3.34;100.00;99469.84;5011290;28;20029;-62
2023/03/08 10:35:17;;;;;;;20.05;11.63;;;;;;;3.46;100.00;99474.72;5007444;28;20084;-62
2023/03/08 10:37:49;;;;;;;15.88;9.60;;;;;;;3.54;100.00;99483.22;5018155;28;20021;-62
2023/03/08 10:40:19;;;;;;;15.32;8.77;;;;;;;3.76;100.00;99485.22;5008390;28;20064;-58
2023/03/08 10:42:52;;;;;;;17.45;9.57;;;;;;;4.26;100.00;99503.81;5005112;28;20032;-59
2023/03/08 10:45:24;;;;;;;28.50;13.90;;;;;;;4.10;100.00;99498.22;5007350;28;20029;-59
2023/03/08 10:48:04;;;;;;;26.73;14.52;;;;;;;3.98;100.00;99491.59;5007807;28;20026;-60
2023/03/08 10:50:31;;;;;;;26.67;13.55;;;;;;;3.93;100.00;99491.72;5026383;28;20055;-61
2023/03/08 10:53:13;;;;;;;25.25;13.38;;;;;;;3.81;100.00;99494.66;5025227;28;20025;-62
2023/03/08 10:55:47;;;;;;;24.10;13.55;;;;;;;3.90;100.00;99492.66;5010653;28;20052;-62
2023/03/08 10:58:36;;;;;;;20.58;12.18;;;;;;;3.92;100.00;99497.84;5014555;28;20080;-59
2023/03/08 11:01:24;;;;;;;29.58;11.48;;;;;;;4.40;100.00;99495.59;5006460;28;20029;-62
2023/03/08 11:04:15;;;;;;;21.52;10.85;;;;;;;4.26;100.00;99493.41;5006223;28;20038;-59
2023/03/08 11:06:41;;;;;;;25.88;12.55;;;;;;;4.21;100.00;99487.47;5008384;28;20091;-59
2023/03/08 11:09:27;;;;;;;18.25;9.93;;;;;;;4.16;100.00;99474.56;5005492;28;20030;-61
2023/03/08 11:11:54;;;;;;;17.48;9.50;;;;;;;4.68;100.00;99468.66;4991563;28;20388;-60
2023/03/08 11:14:20;;;;;;;14.10;8.45;;;;;;;4.60;100.00;99470.66;4972852;28;20028;-61
2023/03/08 11:16:48;;;;;;;17.65;9.52;;;;;;;4.79;100.00;99468.31;4988330;28;20064;-61
2023/03/08 11:19:32;;;;;;;17.87;8.93;;;;;;;4.78;100.00;99467.47;4989497;28;20101;-59